Terminal Aerodrome Forecast
Issued by NWS Goodland, KS

Home | Current Version | Previous Version | Text Only | Print | Product List | Glossary On
Versions: 1 2 3 4 5 6 7 8 9 10 11 12 13 14 15 16
000
FTUS43 KGLD 210521
TAFGLD
TAF
KGLD 210521Z 2106/2206 07012KT P6SM BKN250
     FM210900 10009KT P6SM FEW130 BKN200
     FM211200 06007KT P6SM BKN090
     FM211400 09013KT P6SM BKN035
     FM212000 12018G25KT P6SM BKN025
     FM220200 13015KT P6SM VCSH OVC040=

USA.gov is the U.S. government's official web portal to all federal, state and local government web resources and services.